createdAt,value
2017-09-27T00:22:55.286Z,20.91
2017-09-27T00:25:22.458Z,20.91
2017-09-27T00:27:49.680Z,20.91
2017-09-27T00:32:50.327Z,20.90
2017-09-27T00:35:17.568Z,20.90
2017-09-27T00:37:44.821Z,20.89
2017-09-27T00:40:11.986Z,20.89
2017-09-27T00:42:39.149Z,20.89
2017-09-27T00:45:06.370Z,20.88
2017-09-27T00:47:33.610Z,20.87
2017-09-27T00:50:00.793Z,20.87
2017-09-27T00:52:28.008Z,20.86
2017-09-27T00:54:55.157Z,20.86
2017-09-27T00:57:23.074Z,20.86
2017-09-27T00:59:50.219Z,20.85
2017-09-27T01:02:17.469Z,20.87
2017-09-27T01:04:44.651Z,20.96
2017-09-27T01:07:11.810Z,20.99
2017-09-27T01:09:38.999Z,20.99
2017-09-27T01:12:06.233Z,21.03
2017-09-27T01:14:33.510Z,21.00
2017-09-27T01:17:00.673Z,20.98
2017-09-27T01:19:27.858Z,20.95
2017-09-27T01:21:55.142Z,20.88
2017-09-27T01:24:22.343Z,20.85
2017-09-27T01:26:51.032Z,20.84
2017-09-27T01:29:18.232Z,20.83
2017-09-27T01:31:45.439Z,20.81
2017-09-27T01:34:12.635Z,20.80
2017-09-27T01:36:39.834Z,20.79
2017-09-27T01:39:07.195Z,20.77
2017-09-27T01:41:34.362Z,20.75
2017-09-27T01:44:02.206Z,20.75
2017-09-27T01:46:29.417Z,20.72
2017-09-27T01:48:56.614Z,20.73
2017-09-27T01:51:25.682Z,20.75
2017-09-27T01:53:52.874Z,20.75
2017-09-27T01:56:33.368Z,20.71
2017-09-27T01:59:00.575Z,20.74
2017-09-27T02:01:27.790Z,20.69
2017-09-27T02:03:55.126Z,20.71
2017-09-27T02:06:22.321Z,20.72
2017-09-27T02:08:49.536Z,20.73
2017-09-27T02:11:16.775Z,20.71
2017-09-27T02:13:43.939Z,20.63
2017-09-27T02:16:11.253Z,20.64
2017-09-27T02:18:38.422Z,20.65
2017-09-27T02:21:05.662Z,20.66
2017-09-27T02:23:32.911Z,20.60
2017-09-27T02:26:00.107Z,20.60
2017-09-27T02:28:28.781Z,20.57
2017-09-27T02:30:55.936Z,20.55
2017-09-27T02:33:23.166Z,20.56
2017-09-27T02:35:50.419Z,20.51
2017-09-27T02:38:17.743Z,20.49
2017-09-27T02:40:44.947Z,20.55
2017-09-27T02:43:12.147Z,20.53
2017-09-27T02:45:39.406Z,20.55
2017-09-27T02:48:06.597Z,20.51
2017-09-27T02:50:33.843Z,20.47
2017-09-27T02:53:01.030Z,20.51
2017-09-27T02:55:28.219Z,20.47
2017-09-27T02:57:55.618Z,20.47
2017-09-27T03:00:22.804Z,20.49
2017-09-27T03:02:50.022Z,20.48
2017-09-27T03:05:17.225Z,20.45
2017-09-27T03:07:44.385Z,20.43
2017-09-27T03:10:11.599Z,20.42
2017-09-27T03:12:38.932Z,20.41
2017-09-27T03:15:06.140Z,20.42
2017-09-27T03:17:33.340Z,20.38
2017-09-27T03:20:00.554Z,20.39
2017-09-27T03:22:27.763Z,20.40
2017-09-27T03:24:54.961Z,20.39
2017-09-27T03:27:22.164Z,20.38
2017-09-27T03:29:49.365Z,20.39
2017-09-27T03:32:16.643Z,20.38
2017-09-27T03:34:43.860Z,20.40
2017-09-27T03:37:11.106Z,20.40
2017-09-27T03:39:38.305Z,20.38
2017-09-27T03:42:05.512Z,20.35
2017-09-27T03:44:32.800Z,20.36
2017-09-27T03:47:02.994Z,20.37
2017-09-27T03:49:30.185Z,20.39
2017-09-27T03:51:57.414Z,20.35
2017-09-27T03:54:24.649Z,20.40
2017-09-27T03:56:51.857Z,20.40
2017-09-27T03:59:19.093Z,20.41
2017-09-27T04:01:46.344Z,20.43
2017-09-27T04:04:13.654Z,20.46
2017-09-27T04:06:40.839Z,20.49
2017-09-27T04:09:08.024Z,20.52
2017-09-27T04:11:35.263Z,20.54
2017-09-27T04:14:02.499Z,20.56
2017-09-27T04:16:29.691Z,20.56
2017-09-27T04:18:56.945Z,20.59
2017-09-27T04:21:24.147Z,20.63
2017-09-27T04:23:51.394Z,20.65
2017-09-27T04:26:18.658Z,20.65
2017-09-27T04:28:45.864Z,20.67
2017-09-27T04:31:13.056Z,20.69
2017-09-27T04:33:42.359Z,20.70
2017-09-27T04:36:09.630Z,20.71
2017-09-27T04:38:36.846Z,20.71
2017-09-27T04:41:04.111Z,20.72
2017-09-27T04:43:31.316Z,20.73
2017-09-27T04:45:58.590Z,20.74
2017-09-27T04:48:25.772Z,20.75
2017-09-27T04:50:52.999Z,20.77
2017-09-27T04:53:20.250Z,20.76
2017-09-27T04:55:47.501Z,20.79
2017-09-27T04:58:14.751Z,20.81
2017-09-27T05:00:41.934Z,20.81
2017-09-27T05:03:09.140Z,20.80
2017-09-27T05:05:36.350Z,20.79
2017-09-27T05:08:03.554Z,20.78
2017-09-27T05:10:38.421Z,20.78
2017-09-27T05:13:05.635Z,20.80
2017-09-27T05:15:32.870Z,20.80
2017-09-27T06:23:10.125Z,21.68
2017-09-27T06:31:21.129Z,21.52
2017-09-27T06:33:48.471Z,21.48
2017-09-27T06:36:22.652Z,21.51
2017-09-27T06:38:49.859Z,21.58
2017-09-27T06:41:17.160Z,21.61
2017-09-27T06:43:49.079Z,21.62
2017-09-27T06:46:16.781Z,21.70
2017-09-27T06:51:48.425Z,21.64
2017-09-27T06:54:16.234Z,21.63
2017-09-27T06:56:43.746Z,21.58
2017-09-27T06:59:11.512Z,21.64
2017-09-27T07:01:40.896Z,21.68
2017-09-27T07:04:09.164Z,21.65
2017-09-27T07:06:36.648Z,21.71
2017-09-27T07:09:04.721Z,21.71
2017-09-27T07:11:34.316Z,21.76
2017-09-27T07:14:02.246Z,21.73
2017-09-27T07:16:31.223Z,21.63
2017-09-27T07:18:59.734Z,21.67
2017-09-27T07:27:33.731Z,21.81
2017-09-27T07:30:03.084Z,21.77
2017-09-27T07:45:37.437Z,21.70
2017-09-27T07:48:09.018Z,21.68
2017-09-27T07:50:36.629Z,21.70
2017-09-27T07:53:03.861Z,21.70
2017-09-27T07:55:34.809Z,21.71
2017-09-27T08:26:22.123Z,21.90
2017-09-27T09:51:39.201Z,22.05
2017-09-27T09:59:19.481Z,22.16
2017-09-27T10:01:49.495Z,22.12
2017-09-27T10:04:18.128Z,22.11
2017-09-27T10:41:16.951Z,22.23
2017-09-27T10:43:48.364Z,22.24
2017-09-27T10:46:20.054Z,22.26
2017-09-27T11:10:05.910Z,22.32
2017-09-27T11:42:47.976Z,22.60
2017-09-27T12:38:22.378Z,22.79
2017-09-27T14:12:30.192Z,22.75
2017-09-27T14:26:06.539Z,22.70
2017-09-27T14:28:43.690Z,22.67
2017-09-27T14:54:49.519Z,22.58
2017-09-27T15:03:03.007Z,22.52
2017-09-27T15:32:48.809Z,22.21
2017-09-27T16:04:41.458Z,21.99
